High wind

Not for real navigation. The accuracy of this data is not assured See disclaimer for more information



ICAO NAME COUNTRY WIND Kt GUST Kt VIS m TEMP/DEW C BARO METAR
KMWN Mount Washington NH United States 34 0 4800 2/2 29.92 KMWN 271251Z 02034KT 3/16SM FG VV003 02/02 RMK FG INTMT
CZHY 32 0 9999 5/4 29.92 CZHY 271300Z AUTO 00032KT 05/04 RMK AO1 SLP122 T00530036 52039
ENFB Oslo / Fornebu Norway 32 0 9999 12/10 29.91 ENFB 271320Z AUTO 18032KT 9999NDV FEW042/// 12/10 Q1013 W///S4
ENGC Gullfax Platform Norway 31 0 9999 11/10 29.91 ENGC 271320Z 20031KT CAVOK 11/10 Q1013 W08/S4
YMAV Avalon, Avalon Airport Australia 31 41 3100 11/9 29.77 YMAV 271327Z AUTO 27031G41KT 3100 SHRA BKN030 BKN065 BKN091 11/09 Q1008

Show more